Time,TemperatureF,DewpointF,PressureIn,WindDirection,WindDirectionDegrees,WindSpeedMPH,WindSpeedGustMPH,Humidity,HourlyPrecipIn,Conditions,Clouds,dailyrainin,SoftwareType,DateUTC
2013-07-18 00:00:00,79.0,71.6,29.70,West,270,0.4,0.4,78,0.00,,,0.00,WUHU216HW,2013-07-18 04:00:00,
2013-07-18 00:01:00,79.0,71.6,29.70,West,270,0.4,0.4,78,0.00,,,0.00,WUHU216HW,2013-07-18 04:01:00,
2013-07-18 00:06:00,79.0,71.6,29.70,West,270,0.4,0.4,78,0.00,,,0.00,WUHU216HW,2013-07-18 04:06:00,
2013-07-18 00:30:00,78.1,71.1,29.70,West,270,0.0,0.0,79,0.00,,,0.00,WUHU216HW,2013-07-18 04:30:00,
2013-07-18 00:35:00,78.1,71.1,29.70,West,270,0.0,0.0,79,0.00,,,0.00,WUHU216HW,2013-07-18 04:35:00,
2013-07-18 01:00:00,77.6,71.3,29.70,SSE,158,0.4,0.4,81,0.00,,,0.00,WUHU216HW,2013-07-18 05:00:00,
2013-07-18 01:05:00,77.6,71.3,29.70,SSE,158,0.4,0.4,81,0.00,,,0.00,WUHU216HW,2013-07-18 05:05:00,
2013-07-18 01:30:00,77.4,71.5,29.69,SSE,158,0.0,0.0,82,0.00,,,0.00,WUHU216HW,2013-07-18 05:30:00,
2013-07-18 01:35:00,77.4,71.5,29.69,SSE,158,0.0,0.0,82,0.00,,,0.00,WUHU216HW,2013-07-18 05:35:00,
2013-07-18 02:00:00,77.4,71.5,29.69,SSE,158,0.0,0.0,82,0.00,,,0.00,WUHU216HW,2013-07-18 06:00:00,
2013-07-18 02:05:00,77.4,71.5,29.69,SSE,158,0.0,0.0,82,0.00,,,0.00,WUHU216HW,2013-07-18 06:05:00,
2013-07-18 02:30:00,76.9,71.3,29.68,SSE,158,0.4,0.4,83,0.00,,,0.00,WUHU216HW,2013-07-18 06:30:00,
2013-07-18 02:35:00,76.9,71.3,29.68,SSE,158,0.4,0.4,83,0.00,,,0.00,WUHU216HW,2013-07-18 06:35:00,
2013-07-18 03:00:00,76.3,71.1,29.68,SSE,158,0.0,0.0,84,0.00,,,0.00,WUHU216HW,2013-07-18 07:00:00,
2013-07-18 03:05:00,76.3,71.1,29.68,SSE,158,0.0,0.0,84,0.00,,,0.00,WUHU216HW,2013-07-18 07:05:00,
2013-07-18 03:30:00,76.0,71.2,29.68,SSE,158,0.0,0.0,85,0.00,,,0.00,WUHU216HW,2013-07-18 07:30:00,
2013-07-18 03:35:00,76.0,71.2,29.68,SSE,158,0.0,0.0,85,0.00,,,0.00,WUHU216HW,2013-07-18 07:35:00,
2013-07-18 04:00:00,75.4,70.7,29.67,SSE,158,0.0,0.0,85,0.00,,,0.00,WUHU216HW,2013-07-18 08:00:00,
2013-07-18 04:05:00,75.4,70.7,29.67,SSE,158,0.0,0.0,85,0.00,,,0.00,WUHU216HW,2013-07-18 08:05:00,
2013-07-18 04:30:00,74.9,70.1,29.67,SSE,158,0.0,0.0,85,0.00,,,0.00,WUHU216HW,2013-07-18 08:30:00,
2013-07-18 04:35:00,74.9,70.1,29.67,SSE,158,0.0,0.0,85,0.00,,,0.00,WUHU216HW,2013-07-18 08:35:00,
2013-07-18 05:00:00,74.2,69.8,29.68,SSE,158,0.4,0.4,86,0.00,,,0.00,WUHU216HW,2013-07-18 09:00:00,
2013-07-18 05:05:00,74.2,69.8,29.68,SSE,158,0.4,0.4,86,0.00,,,0.00,WUHU216HW,2013-07-18 09:05:00,
2013-07-18 05:30:00,74.0,69.6,29.68,SSE,158,0.0,0.0,86,0.00,,,0.00,WUHU216HW,2013-07-18 09:30:00,
2013-07-18 05:35:00,74.0,69.6,29.68,SSE,158,0.0,0.0,86,0.00,,,0.00,WUHU216HW,2013-07-18 09:35:00,
2013-07-18 05:40:00,74.0,69.6,29.68,SSE,158,0.0,0.0,86,0.00,,,0.00,WUHU216HW,2013-07-18 09:40:00,
2013-07-18 06:00:00,73.4,69.4,29.68,South,180,0.0,0.0,87,0.00,,,0.00,WUHU216HW,2013-07-18 10:00:00,
2013-07-18 06:05:00,73.4,69.4,29.68,South,180,0.0,0.0,87,0.00,,,0.00,WUHU216HW,2013-07-18 10:05:00,
2013-07-18 06:30:00,73.4,69.7,29.68,South,180,0.0,0.0,88,0.00,,,0.00,WUHU216HW,2013-07-18 10:30:00,
2013-07-18 06:35:00,73.4,69.7,29.68,South,180,0.0,0.0,88,0.00,,,0.00,WUHU216HW,2013-07-18 10:35:00,
2013-07-18 19:00:00,86.0,73.8,29.60,SW,225,0.9,0.9,67,0.00,,,0.00,WUHU216HW,2013-07-18 23:00:00,
2013-07-18 19:05:00,85.9,74.2,29.59,SSE,158,4.7,4.9,68,0.00,,,0.00,WUHU216HW,2013-07-18 23:05:00,
2013-07-18 19:10:00,85.9,74.2,29.59,SSE,158,4.7,4.9,68,0.00,,,0.00,WUHU216HW,2013-07-18 23:10:00,
2013-07-18 19:32:00,85.0,73.3,29.60,SSE,158,0.7,0.7,68,0.00,,,0.00,WUHU216HW,2013-07-18 23:32:00,
2013-07-18 19:37:00,85.0,73.3,29.60,SSE,158,0.7,0.7,68,0.00,,,0.00,WUHU216HW,2013-07-18 23:37:00,
2013-07-18 20:00:00,85.0,73.7,29.59,SSW,203,0.2,0.2,69,0.00,,,0.00,WUHU216HW,2013-07-19 00:00:00,
2013-07-18 20:05:00,85.0,73.7,29.59,SSW,203,0.2,0.2,69,0.00,,,0.00,WUHU216HW,2013-07-19 00:05:00,
2013-07-18 20:30:00,83.3,73.4,29.59,SSE,158,0.0,0.0,72,0.00,,,0.00,WUHU216HW,2013-07-19 00:30:00,
2013-07-18 20:35:00,83.3,73.4,29.59,SSE,158,0.0,0.0,72,0.00,,,0.00,WUHU216HW,2013-07-19 00:35:00,
2013-07-18 21:00:00,81.7,74.6,29.58,SSE,158,0.7,0.7,79,0.00,,,0.00,WUHU216HW,2013-07-19 01:00:00,
2013-07-18 21:05:00,81.7,74.6,29.58,SSE,158,0.7,0.7,79,0.00,,,0.00,WUHU216HW,2013-07-19 01:05:00,
2013-07-18 21:30:00,81.0,73.5,29.59,SSE,158,0.0,0.0,78,0.00,,,0.00,WUHU216HW,2013-07-19 01:30:00,
2013-07-18 21:35:00,81.0,73.5,29.59,SSE,158,0.0,0.0,78,0.00,,,0.00,WUHU216HW,2013-07-19 01:35:00,
2013-07-18 22:00:00,80.3,73.6,29.59,SSW,203,0.0,0.0,80,0.00,,,0.00,WUHU216HW,2013-07-19 02:00:00,
2013-07-18 22:04:00,80.3,73.6,29.59,SSW,203,0.0,0.0,80,0.00,,,0.00,WUHU216HW,2013-07-19 02:04:00,
2013-07-18 22:30:00,79.9,74.7,29.58,SE,135,2.7,2.7,84,0.00,,,0.00,WUHU216HW,2013-07-19 02:30:00,
2013-07-18 22:35:00,79.9,74.7,29.58,SE,135,2.7,2.7,84,0.00,,,0.00,WUHU216HW,2013-07-19 02:35:00,
2013-07-18 22:59:00,80.1,74.2,29.59,SSE,158,0.4,0.4,82,0.00,,,0.00,WUHU216HW,2013-07-19 02:59:00,
2013-07-18 23:00:00,80.1,74.2,29.59,SSE,158,0.4,0.4,82,0.00,,,0.00,WUHU216HW,2013-07-19 03:00:00,
2013-07-18 23:05:00,80.1,74.2,29.59,SSE,158,0.4,0.4,82,0.00,,,0.00,WUHU216HW,2013-07-19 03:05:00,
2013-07-18 23:30:00,80.3,74.4,29.59,SE,135,0.4,0.4,82,0.00,,,0.00,WUHU216HW,2013-07-19 03:30:00,
2013-07-18 23:35:00,80.3,74.4,29.59,SE,135,0.4,0.4,82,0.00,,,0.00,WUHU216HW,2013-07-19 03:35:00,